createdAt,value
2023-01-07T00:03:45.287Z,47.70
2023-01-07T00:08:48.010Z,56.08
2023-01-07T00:13:50.797Z,52.92
2023-01-07T00:18:53.515Z,53.95
2023-01-07T00:23:56.296Z,46.97
2023-01-07T00:28:58.485Z,45.17
2023-01-07T00:34:00.465Z,44.40
2023-01-07T00:39:05.900Z,45.28
2023-01-07T00:44:08.056Z,38.55
2023-01-07T00:49:10.076Z,42.45
2023-01-07T00:54:11.954Z,43.85
2023-01-07T00:59:13.805Z,41.63
2023-01-07T01:04:16.651Z,44.17
2023-01-07T01:09:18.481Z,44.40
2023-01-07T01:14:20.436Z,42.80
2023-01-07T14:53:57.673Z,3.13
2023-01-07T14:58:59.517Z,3.78
2023-01-07T15:04:19.339Z,1.80
2023-01-07T15:09:25.155Z,4.70
2023-01-07T15:14:26.981Z,1.92
2023-01-07T15:19:29.452Z,2.72
2023-01-07T15:24:31.391Z,2.97
2023-01-07T15:30:01.522Z,4.35
2023-01-07T15:35:30.048Z,2.88
2023-01-07T15:40:32.065Z,2.70
2023-01-07T15:45:34.303Z,3.60
2023-01-07T15:50:36.389Z,2.97
2023-01-07T15:55:38.452Z,3.63
2023-01-07T16:00:40.701Z,4.85
2023-01-07T16:05:43.264Z,3.85
2023-01-07T16:11:25.473Z,3.63
2023-01-07T16:16:30.174Z,2.38
2023-01-07T16:21:40.019Z,2.67
2023-01-07T16:26:46.953Z,2.72
2023-01-07T16:31:49.623Z,4.32
2023-01-07T16:37:03.523Z,2.47
2023-01-07T16:42:06.090Z,3.17
2023-01-07T16:47:29.539Z,4.03
2023-01-07T16:52:33.485Z,2.90
2023-01-07T16:57:40.614Z,2.95
2023-01-07T17:02:59.994Z,2.95
2023-01-07T17:08:16.585Z,4.93
2023-01-07T17:13:25.257Z,3.97
2023-01-07T17:18:28.978Z,3.20
2023-01-07T17:23:31.780Z,3.03
2023-01-07T17:28:37.087Z,4.07
2023-01-07T17:33:39.922Z,2.83
2023-01-07T17:38:42.279Z,3.38
2023-01-07T17:43:44.342Z,3.92
2023-01-07T17:48:46.587Z,3.37
2023-01-07T17:53:50.122Z,2.95
2023-01-07T17:58:53.406Z,3.65
2023-01-07T18:03:57.407Z,3.78
2023-01-07T18:08:59.252Z,3.60
2023-01-07T18:14:01.372Z,4.90
2023-01-07T18:19:03.566Z,3.50
2023-01-07T18:24:06.904Z,4.25
2023-01-07T18:34:11.611Z,4.10
2023-01-07T18:39:19.504Z,4.68
2023-01-07T18:44:23.368Z,3.47
2023-01-07T18:49:25.772Z,3.78
2023-01-07T18:54:28.566Z,7.93
2023-01-07T18:59:31.431Z,4.15
2023-01-07T19:04:33.968Z,5.95
2023-01-07T19:09:36.342Z,4.20
2023-01-07T19:14:38.988Z,5.70
2023-01-07T19:19:48.325Z,5.57
2023-01-07T19:24:51.424Z,5.32
2023-01-07T19:29:53.877Z,5.13
2023-01-07T19:34:56.053Z,5.60
2023-01-07T19:39:58.306Z,5.53
2023-01-07T19:45:00.823Z,4.75
2023-01-07T19:50:03.042Z,6.17
2023-01-07T19:55:05.812Z,5.30
2023-01-07T20:00:09.153Z,4.50
2023-01-07T20:05:11.812Z,4.60
2023-01-07T20:10:14.221Z,4.90
2023-01-07T20:15:16.806Z,5.17
2023-01-07T20:20:18.797Z,6.00
2023-01-07T20:25:20.737Z,4.88
2023-01-07T20:30:22.780Z,5.45
2023-01-07T20:35:25.398Z,7.17
2023-01-07T20:40:27.659Z,4.53
2023-01-07T20:45:29.727Z,7.10
2023-01-07T20:50:32.277Z,8.33
2023-01-07T20:55:36.485Z,4.30
2023-01-07T21:00:40.998Z,5.15
2023-01-07T21:05:44.145Z,5.47
2023-01-07T21:10:46.629Z,4.43
2023-01-07T21:15:49.896Z,3.83
2023-01-07T21:25:54.730Z,4.13
2023-01-07T21:31:01.388Z,5.00
2023-01-07T21:36:12.208Z,4.35
2023-01-07T21:41:17.013Z,4.88
2023-01-07T21:46:19.454Z,5.30
2023-01-07T21:51:24.835Z,4.73
2023-01-07T21:56:28.419Z,5.25
2023-01-07T22:01:30.436Z,5.85
2023-01-07T22:06:33.655Z,5.10
2023-01-07T22:11:36.782Z,10.63
2023-01-07T22:16:39.322Z,4.40
2023-01-07T22:21:41.742Z,5.53
2023-01-07T22:26:44.241Z,4.97
2023-01-07T22:31:46.346Z,4.15
2023-01-07T22:37:10.870Z,5.10
2023-01-07T22:42:21.249Z,3.72
2023-01-07T22:47:28.988Z,4.55
2023-01-07T22:52:31.547Z,4.03
2023-01-07T22:57:35.011Z,4.57
2023-01-07T23:02:37.379Z,3.22
2023-01-07T23:07:39.951Z,3.63
2023-01-07T23:12:42.119Z,3.27
2023-01-07T23:17:43.956Z,5.45
2023-01-07T23:22:45.772Z,4.38
2023-01-07T23:27:48.688Z,4.00
2023-01-07T23:32:51.083Z,5.03
2023-01-07T23:37:53.519Z,3.88
2023-01-07T23:42:57.566Z,5.78
2023-01-07T23:47:59.772Z,4.50
2023-01-07T23:53:01.769Z,6.75
2023-01-07T23:58:04.066Z,3.87
